F/V Argentario — FGPE — position and weather

sailwx.info

Track history (hours):
 
Tides and Currents Weather Stations Pressure Air Temp Water Temp Dewpoint Dewpoint Depression Visibility Wind Speed Wind Dir Waves Ship Positions

F/V Argentario

Last reported at 2015-May-22 07:06 UTC. Time now 2015-May-22 23:40 UTC.
Position N 46°27' W 002°41'.

Length 22 m; draft 3.4 m.

Type: Fishing. MMSI: 228975000.

Date/timePositionNaut miles runAvg speedWind from/ knotsBaromVisibWave heightAir tempDewpointWater temp
2015-May-22 07:06N 46°27' W 002°41'2 3.0
2015-May-22 06:33N 46°28' W 002°43'  
2015-May-14 18:33N 46°40' W 002°12'7 7.0
2015-May-14 17:33N 46°36' W 002°04'8 7.6
2015-May-14 16:33N 46°31' W 001°55'5 5.1
2015-May-14 15:34N 46°30' W 001°48'0 0.3
2015-May-14 14:33N 46°30' W 001°47'8 7.7
2015-May-14 13:33N 46°24' W 001°55'9 9.0
2015-May-14 12:33N 46°19' W 002°05'39 1.1
2015-May-13 02:17N 45°54' W 002°48'0 0.1
2015-May-13 00:29N 45°54' W 002°48'0 0.1
2015-May-12 23:29N 45°54' W 002°48'  
Track history (hours):
 
Tides and Currents Weather Stations Pressure Air Temp Water Temp Dewpoint Dewpoint Depression Visibility Wind Speed Wind Dir Waves Ship Positions

F/V Argentario

Last reported at 2015-May-22 07:06 UTC. Time now 2015-May-22 23:40 UTC.
Position N 46°27' W 002°41'.

Length 22 m; draft 3.4 m.

Type: Fishing. MMSI: 228975000.

Date/timePositionNaut miles runAvg speedWind from/ knotsBaromVisibWave heightAir tempDewpointWater temp
2015-May-22 07:06N 46°27' W 002°41'2 3.0
2015-May-22 06:33N 46°28' W 002°43'  
2015-May-14 18:33N 46°40' W 002°12'7 7.0
2015-May-14 17:33N 46°36' W 002°04'8 7.6
2015-May-14 16:33N 46°31' W 001°55'5 5.1
2015-May-14 15:34N 46°30' W 001°48'0 0.3
2015-May-14 14:33N 46°30' W 001°47'8 7.7
2015-May-14 13:33N 46°24' W 001°55'9 9.0
2015-May-14 12:33N 46°19' W 002°05'39 1.1
2015-May-13 02:17N 45°54' W 002°48'0 0.1
2015-May-13 00:29N 45°54' W 002°48'0 0.1
2015-May-12 23:29N 45°54' W 002°48'  

Dump ship's entire track history